sensor_id;sensor_type;location;lat;lon;timestamp;temperature;humidity
57282;DHT22;43129;52.628;10.098;2024-01-07T00:00:24;-0.30;99.90
57282;DHT22;43129;52.628;10.098;2024-01-07T00:02:49;-0.30;99.90
57282;DHT22;43129;52.628;10.098;2024-01-07T00:05:17;-0.30;99.90
57282;DHT22;43129;52.628;10.098;2024-01-07T00:07:48;-0.30;99.90
57282;DHT22;43129;52.628;10.098;2024-01-07T00:10:16;-0.30;99.90
57282;DHT22;43129;52.628;10.098;2024-01-07T00:12:41;-0.30;99.90
57282;DHT22;43129;52.628;10.098;2024-01-07T00:15:07;-0.20;99.90
57282;DHT22;43129;52.628;10.098;2024-01-07T00:17:35;-0.30;99.90
57282;DHT22;43129;52.628;10.098;2024-01-07T00:20:05;-0.30;99.90
57282;DHT22;43129;52.628;10.098;2024-01-07T00:22:34;-0.30;99.90
57282;DHT22;43129;52.628;10.098;2024-01-07T00:25:02;-0.30;99.90
57282;DHT22;43129;52.628;10.098;2024-01-07T00:27:30;-0.30;99.90
57282;DHT22;43129;52.628;10.098;2024-01-07T00:29:57;-0.30;99.90
57282;DHT22;43129;52.628;10.098;2024-01-07T00:32:23;-0.30;99.90
57282;DHT22;43129;52.628;10.098;2024-01-07T00:34:51;-0.30;99.90
57282;DHT22;43129;52.628;10.098;2024-01-07T00:37:17;-0.20;99.90
57282;DHT22;43129;52.628;10.098;2024-01-07T00:39:42;-0.30;99.90
57282;DHT22;43129;52.628;10.098;2024-01-07T00:42:11;-0.20;99.90
57282;DHT22;43129;52.628;10.098;2024-01-07T00:44:37;-0.30;99.90
57282;DHT22;43129;52.628;10.098;2024-01-07T00:47:03;-0.30;99.90
57282;DHT22;43129;52.628;10.098;2024-01-07T00:49:31;-0.30;99.90
57282;DHT22;43129;52.628;10.098;2024-01-07T00:51:56;-0.30;99.90
57282;DHT22;43129;52.628;10.098;2024-01-07T00:54:22;-0.30;99.90
57282;DHT22;43129;52.628;10.098;2024-01-07T00:56:47;-0.40;99.90
57282;DHT22;43129;52.628;10.098;2024-01-07T00:59:13;-0.40;99.90
57282;DHT22;43129;52.628;10.098;2024-01-07T01:01:39;-0.40;99.90
57282;DHT22;43129;52.628;10.098;2024-01-07T01:04:07;-0.40;99.90
57282;DHT22;43129;52.628;10.098;2024-01-07T01:06:35;-0.40;99.90
57282;DHT22;43129;52.628;10.098;2024-01-07T01:09:00;-0.50;99.90
57282;DHT22;43129;52.628;10.098;2024-01-07T01:11:26;-0.50;99.90
57282;DHT22;43129;52.628;10.098;2024-01-07T01:13:56;-0.50;99.90
57282;DHT22;43129;52.628;10.098;2024-01-07T01:16:24;-0.50;99.90
57282;DHT22;43129;52.628;10.098;2024-01-07T01:18:50;-0.50;99.90
57282;DHT22;43129;52.628;10.098;2024-01-07T01:21:16;-0.50;99.90
57282;DHT22;43129;52.628;10.098;2024-01-07T01:23:42;-0.50;99.90
57282;DHT22;43129;52.628;10.098;2024-01-07T01:26:08;-0.60;99.90
57282;DHT22;43129;52.628;10.098;2024-01-07T01:28:35;-0.60;99.90
57282;DHT22;43129;52.628;10.098;2024-01-07T01:31:06;-0.60;99.90
57282;DHT22;43129;52.628;10.098;2024-01-07T01:33:31;-0.60;99.90
57282;DHT22;43129;52.628;10.098;2024-01-07T01:35:57;-0.60;99.90
57282;DHT22;43129;52.628;10.098;2024-01-07T01:38:25;-0.60;99.90
57282;DHT22;43129;52.628;10.098;2024-01-07T01:40:53;-0.60;99.90
57282;DHT22;43129;52.628;10.098;2024-01-07T01:43:28;-0.60;99.90
57282;DHT22;43129;52.628;10.098;2024-01-07T01:45:55;-0.60;99.90
57282;DHT22;43129;52.628;10.098;2024-01-07T01:48:26;-0.60;99.90
57282;DHT22;43129;52.628;10.098;2024-01-07T01:50:53;-0.60;99.90
57282;DHT22;43129;52.628;10.098;2024-01-07T01:53:19;-0.60;99.90
57282;DHT22;43129;52.628;10.098;2024-01-07T01:55:45;-0.70;99.90
57282;DHT22;43129;52.628;10.098;2024-01-07T01:58:13;-0.70;99.90
57282;DHT22;43129;52.628;10.098;2024-01-07T02:00:44;-0.70;99.90
57282;DHT22;43129;52.628;10.098;2024-01-07T02:03:09;-0.70;99.90
57282;DHT22;43129;52.628;10.098;2024-01-07T02:05:35;-0.60;99.90
57282;DHT22;43129;52.628;10.098;2024-01-07T02:08:01;-0.70;99.90
57282;DHT22;43129;52.628;10.098;2024-01-07T02:10:26;-0.70;99.90
57282;DHT22;43129;52.628;10.098;2024-01-07T02:12:54;-0.70;99.90
57282;DHT22;43129;52.628;10.098;2024-01-07T02:15:22;-0.70;99.90
57282;DHT22;43129;52.628;10.098;2024-01-07T02:17:48;-0.70;99.90
57282;DHT22;43129;52.628;10.098;2024-01-07T02:20:13;-0.80;99.90
57282;DHT22;43129;52.628;10.098;2024-01-07T02:22:39;-0.80;99.90
57282;DHT22;43129;52.628;10.098;2024-01-07T02:25:04;-0.80;99.90
57282;DHT22;43129;52.628;10.098;2024-01-07T02:27:31;-0.70;99.90
57282;DHT22;43129;52.628;10.098;2024-01-07T02:29:56;-0.80;99.90
57282;DHT22;43129;52.628;10.098;2024-01-07T02:32:22;-0.80;99.90
57282;DHT22;43129;52.628;10.098;2024-01-07T02:34:48;-0.80;99.90
57282;DHT22;43129;52.628;10.098;2024-01-07T02:37:13;-0.80;99.90
57282;DHT22;43129;52.628;10.098;2024-01-07T02:39:39;-0.80;99.90
57282;DHT22;43129;52.628;10.098;2024-01-07T02:42:05;-0.90;99.90
57282;DHT22;43129;52.628;10.098;2024-01-07T02:44:30;-0.90;99.90
57282;DHT22;43129;52.628;10.098;2024-01-07T02:46:59;-0.80;99.90
57282;DHT22;43129;52.628;10.098;2024-01-07T02:49:24;-0.80;99.90
57282;DHT22;43129;52.628;10.098;2024-01-07T02:51:52;-0.80;99.90
57282;DHT22;43129;52.628;10.098;2024-01-07T02:54:17;-0.80;99.90
57282;DHT22;43129;52.628;10.098;2024-01-07T02:56:43;-0.80;99.90
57282;DHT22;43129;52.628;10.098;2024-01-07T02:59:09;-0.80;99.90
57282;DHT22;43129;52.628;10.098;2024-01-07T03:01:34;-0.90;99.90
57282;DHT22;43129;52.628;10.098;2024-01-07T03:04:06;-0.90;99.90
57282;DHT22;43129;52.628;10.098;2024-01-07T03:06:34;-0.90;99.90
57282;DHT22;43129;52.628;10.098;2024-01-07T03:09:04;-0.90;99.90
57282;DHT22;43129;52.628;10.098;2024-01-07T03:11:32;-0.90;99.90
57282;DHT22;43129;52.628;10.098;2024-01-07T03:13:58;-0.90;99.90
57282;DHT22;43129;52.628;10.098;2024-01-07T03:16:25;-0.90;99.90
57282;DHT22;43129;52.628;10.098;2024-01-07T03:18:55;-0.90;99.90
57282;DHT22;43129;52.628;10.098;2024-01-07T03:21:22;-0.90;99.90
57282;DHT22;43129;52.628;10.098;2024-01-07T03:23:49;-1.00;99.90
57282;DHT22;43129;52.628;10.098;2024-01-07T03:26:20;-1.00;99.90
57282;DHT22;43129;52.628;10.098;2024-01-07T03:28:45;-0.90;99.90
57282;DHT22;43129;52.628;10.098;2024-01-07T03:31:13;-0.90;99.90
57282;DHT22;43129;52.628;10.098;2024-01-07T03:33:40;-0.90;99.90
57282;DHT22;43129;52.628;10.098;2024-01-07T03:36:09;-0.90;99.90
57282;DHT22;43129;52.628;10.098;2024-01-07T03:38:36;-1.00;99.90
57282;DHT22;43129;52.628;10.098;2024-01-07T03:41:02;-1.00;99.90
57282;DHT22;43129;52.628;10.098;2024-01-07T03:43:30;-1.00;99.90
57282;DHT22;43129;52.628;10.098;2024-01-07T03:45:59;-1.00;99.90
57282;DHT22;43129;52.628;10.098;2024-01-07T03:48:25;-1.00;99.90
57282;DHT22;43129;52.628;10.098;2024-01-07T03:50:54;-0.90;99.90
57282;DHT22;43129;52.628;10.098;2024-01-07T03:53:19;-0.90;99.90
57282;DHT22;43129;52.628;10.098;2024-01-07T03:55:47;-0.90;99.90
57282;DHT22;43129;52.628;10.098;2024-01-07T03:58:15;-0.90;99.90
57282;DHT22;43129;52.628;10.098;2024-01-07T04:00:40;-0.90;99.90
57282;DHT22;43129;52.628;10.098;2024-01-07T04:03:11;-0.90;99.90
57282;DHT22;43129;52.628;10.098;2024-01-07T04:05:36;-0.90;99.90
57282;DHT22;43129;52.628;10.098;2024-01-07T04:08:04;-0.90;99.90
57282;DHT22;43129;52.628;10.098;2024-01-07T04:10:32;-0.90;99.90
57282;DHT22;43129;52.628;10.098;2024-01-07T04:13:03;-1.00;99.90
57282;DHT22;43129;52.628;10.098;2024-01-07T04:15:29;-1.00;99.90
57282;DHT22;43129;52.628;10.098;2024-01-07T04:17:55;-1.00;99.90
57282;DHT22;43129;52.628;10.098;2024-01-07T04:20:23;-1.00;99.90
57282;DHT22;43129;52.628;10.098;2024-01-07T04:22:51;-1.00;99.90
57282;DHT22;43129;52.628;10.098;2024-01-07T04:25:17;-1.00;99.90
57282;DHT22;43129;52.628;10.098;2024-01-07T04:27:42;-1.10;99.90
57282;DHT22;43129;52.628;10.098;2024-01-07T04:30:13;-1.10;99.90
57282;DHT22;43129;52.628;10.098;2024-01-07T04:32:43;-1.10;99.90
57282;DHT22;43129;52.628;10.098;2024-01-07T04:35:14;-1.10;99.90
57282;DHT22;43129;52.628;10.098;2024-01-07T04:37:39;-1.10;99.90
57282;DHT22;43129;52.628;10.098;2024-01-07T04:40:05;-1.10;99.90
57282;DHT22;43129;52.628;10.098;2024-01-07T04:42:35;-1.10;99.90
57282;DHT22;43129;52.628;10.098;2024-01-07T04:45:04;-1.20;99.90
57282;DHT22;43129;52.628;10.098;2024-01-07T04:47:33;-1.10;99.90
57282;DHT22;43129;52.628;10.098;2024-01-07T04:50:07;-1.20;99.90
57282;DHT22;43129;52.628;10.098;2024-01-07T04:52:37;-1.20;99.90
57282;DHT22;43129;52.628;10.098;2024-01-07T04:55:05;-1.20;99.90
57282;DHT22;43129;52.628;10.098;2024-01-07T04:57:34;-1.20;99.90
57282;DHT22;43129;52.628;10.098;2024-01-07T05:00:03;-1.20;99.90
57282;DHT22;43129;52.628;10.098;2024-01-07T05:02:31;-1.20;99.90
57282;DHT22;43129;52.628;10.098;2024-01-07T05:04:59;-1.20;99.90
57282;DHT22;43129;52.628;10.098;2024-01-07T05:07:25;-1.20;99.90
57282;DHT22;43129;52.628;10.098;2024-01-07T05:09:53;-1.20;99.90
57282;DHT22;43129;52.628;10.098;2024-01-07T05:12:23;-1.20;99.90
57282;DHT22;43129;52.628;10.098;2024-01-07T05:14:50;-1.20;99.90
57282;DHT22;43129;52.628;10.098;2024-01-07T05:17:16;-1.20;99.90
57282;DHT22;43129;52.628;10.098;2024-01-07T05:19:43;-1.30;99.90
57282;DHT22;43129;52.628;10.098;2024-01-07T05:22:11;-1.30;99.90
57282;DHT22;43129;52.628;10.098;2024-01-07T05:24:39;-1.40;99.90
57282;DHT22;43129;52.628;10.098;2024-01-07T05:27:08;-1.50;99.90
57282;DHT22;43129;52.628;10.098;2024-01-07T05:29:36;-1.50;99.90
57282;DHT22;43129;52.628;10.098;2024-01-07T05:32:07;-1.50;99.90
57282;DHT22;43129;52.628;10.098;2024-01-07T05:34:34;-1.60;99.90
57282;DHT22;43129;52.628;10.098;2024-01-07T05:37:00;-1.60;99.90
57282;DHT22;43129;52.628;10.098;2024-01-07T05:39:28;-1.60;99.90
57282;DHT22;43129;52.628;10.098;2024-01-07T05:41:54;-1.70;99.90
57282;DHT22;43129;52.628;10.098;2024-01-07T05:44:24;-1.70;99.90
57282;DHT22;43129;52.628;10.098;2024-01-07T05:46:51;-1.70;99.90
57282;DHT22;43129;52.628;10.098;2024-01-07T05:49:17;-1.80;99.90
57282;DHT22;43129;52.628;10.098;2024-01-07T05:51:45;-1.80;99.90
57282;DHT22;43129;52.628;10.098;2024-01-07T05:54:13;-1.90;99.90
57282;DHT22;43129;52.628;10.098;2024-01-07T05:56:39;-1.90;99.90
57282;DHT22;43129;52.628;10.098;2024-01-07T05:59:08;-1.90;99.90
57282;DHT22;43129;52.628;10.098;2024-01-07T06:01:33;-1.90;99.90
57282;DHT22;43129;52.628;10.098;2024-01-07T06:04:02;-2.00;99.90
57282;DHT22;43129;52.628;10.098;2024-01-07T06:06:28;-2.10;99.90
57282;DHT22;43129;52.628;10.098;2024-01-07T06:08:56;-2.00;99.90
57282;DHT22;43129;52.628;10.098;2024-01-07T06:11:22;-2.00;99.90
57282;DHT22;43129;52.628;10.098;2024-01-07T06:13:52;-2.00;99.90
57282;DHT22;43129;52.628;10.098;2024-01-07T06:16:20;-2.00;99.90
57282;DHT22;43129;52.628;10.098;2024-01-07T06:18:48;-2.00;99.90
57282;DHT22;43129;52.628;10.098;2024-01-07T06:21:16;-2.00;99.90
57282;DHT22;43129;52.628;10.098;2024-01-07T06:23:44;-2.00;99.90
57282;DHT22;43129;52.628;10.098;2024-01-07T06:26:10;-2.00;99.90
57282;DHT22;43129;52.628;10.098;2024-01-07T06:28:38;-2.00;99.90
57282;DHT22;43129;52.628;10.098;2024-01-07T06:31:04;-2.10;99.90
57282;DHT22;43129;52.628;10.098;2024-01-07T06:33:32;-2.00;99.90
57282;DHT22;43129;52.628;10.098;2024-01-07T06:36:01;-2.00;99.90
57282;DHT22;43129;52.628;10.098;2024-01-07T06:38:26;-1.90;99.90
57282;DHT22;43129;52.628;10.098;2024-01-07T06:40:55;-1.90;99.90
57282;DHT22;43129;52.628;10.098;2024-01-07T06:43:20;-1.80;99.90
57282;DHT22;43129;52.628;10.098;2024-01-07T06:45:49;-1.70;99.90
57282;DHT22;43129;52.628;10.098;2024-01-07T06:48:14;-1.80;99.90
57282;DHT22;43129;52.628;10.098;2024-01-07T06:50:40;-1.80;99.90
57282;DHT22;43129;52.628;10.098;2024-01-07T06:53:10;-1.80;99.90
57282;DHT22;43129;52.628;10.098;2024-01-07T06:55:39;-1.80;99.90
57282;DHT22;43129;52.628;10.098;2024-01-07T06:58:04;-1.70;99.90
57282;DHT22;43129;52.628;10.098;2024-01-07T07:00:30;-1.70;99.90
57282;DHT22;43129;52.628;10.098;2024-01-07T07:02:56;-1.70;99.90
57282;DHT22;43129;52.628;10.098;2024-01-07T07:05:24;-1.70;99.90
57282;DHT22;43129;52.628;10.098;2024-01-07T07:07:49;-1.70;99.90
57282;DHT22;43129;52.628;10.098;2024-01-07T07:10:17;-1.60;99.90
57282;DHT22;43129;52.628;10.098;2024-01-07T07:12:50;-1.60;99.90
57282;DHT22;43129;52.628;10.098;2024-01-07T07:15:16;-1.60;99.90
57282;DHT22;43129;52.628;10.098;2024-01-07T07:17:42;-1.60;99.90
57282;DHT22;43129;52.628;10.098;2024-01-07T07:20:08;-1.60;99.90
57282;DHT22;43129;52.628;10.098;2024-01-07T07:22:37;-1.60;99.90
57282;DHT22;43129;52.628;10.098;2024-01-07T07:25:05;-1.50;99.90
57282;DHT22;43129;52.628;10.098;2024-01-07T07:27:31;-1.60;99.90
57282;DHT22;43129;52.628;10.098;2024-01-07T07:29:56;-1.60;99.90
57282;DHT22;43129;52.628;10.098;2024-01-07T07:32:27;-1.60;99.90
57282;DHT22;43129;52.628;10.098;2024-01-07T07:34:55;-1.50;99.90
57282;DHT22;43129;52.628;10.098;2024-01-07T07:37:22;-1.50;99.90
57282;DHT22;43129;52.628;10.098;2024-01-07T07:39:48;-1.40;99.90
57282;DHT22;43129;52.628;10.098;2024-01-07T07:42:16;-1.50;99.90
57282;DHT22;43129;52.628;10.098;2024-01-07T07:44:44;-1.50;99.90
57282;DHT22;43129;52.628;10.098;2024-01-07T07:47:09;-1.40;99.90
57282;DHT22;43129;52.628;10.098;2024-01-07T07:49:39;-1.40;99.90
57282;DHT22;43129;52.628;10.098;2024-01-07T07:52:07;-1.30;99.90
57282;DHT22;43129;52.628;10.098;2024-01-07T07:54:33;-1.20;99.90
57282;DHT22;43129;52.628;10.098;2024-01-07T07:56:59;-1.20;99.90
57282;DHT22;43129;52.628;10.098;2024-01-07T07:59:24;-1.20;99.90
57282;DHT22;43129;52.628;10.098;2024-01-07T08:01:50;-1.30;99.90
57282;DHT22;43129;52.628;10.098;2024-01-07T08:04:16;-1.30;99.90
57282;DHT22;43129;52.628;10.098;2024-01-07T08:06:44;-1.20;99.90
57282;DHT22;43129;52.628;10.098;2024-01-07T08:09:13;-1.20;99.90
57282;DHT22;43129;52.628;10.098;2024-01-07T08:11:40;-1.20;99.90
57282;DHT22;43129;52.628;10.098;2024-01-07T08:14:06;-1.20;99.90
57282;DHT22;43129;52.628;10.098;2024-01-07T08:16:34;-1.20;99.90
57282;DHT22;43129;52.628;10.098;2024-01-07T08:19:02;-1.20;99.90
57282;DHT22;43129;52.628;10.098;2024-01-07T08:21:30;-1.20;99.90
57282;DHT22;43129;52.628;10.098;2024-01-07T08:23:59;-1.20;99.90
57282;DHT22;43129;52.628;10.098;2024-01-07T08:26:24;-1.10;99.90
57282;DHT22;43129;52.628;10.098;2024-01-07T08:28:52;-1.10;99.90
57282;DHT22;43129;52.628;10.098;2024-01-07T08:31:20;-1.00;99.90
57282;DHT22;43129;52.628;10.098;2024-01-07T08:33:45;-1.10;99.90
57282;DHT22;43129;52.628;10.098;2024-01-07T08:36:11;-1.00;99.90
57282;DHT22;43129;52.628;10.098;2024-01-07T08:38:37;-1.10;99.90
57282;DHT22;43129;52.628;10.098;2024-01-07T08:41:02;-1.00;99.90
57282;DHT22;43129;52.628;10.098;2024-01-07T08:43:34;-0.90;99.90
57282;DHT22;43129;52.628;10.098;2024-01-07T08:46:03;-0.90;99.90
57282;DHT22;43129;52.628;10.098;2024-01-07T08:48:32;-0.90;99.90
57282;DHT22;43129;52.628;10.098;2024-01-07T08:51:04;-0.80;99.90
57282;DHT22;43129;52.628;10.098;2024-01-07T08:53:32;-0.80;99.90
57282;DHT22;43129;52.628;10.098;2024-01-07T08:55:58;-0.80;99.90
57282;DHT22;43129;52.628;10.098;2024-01-07T08:58:26;-0.80;99.90
57282;DHT22;43129;52.628;10.098;2024-01-07T09:00:52;-0.80;99.90
57282;DHT22;43129;52.628;10.098;2024-01-07T09:03:20;-0.70;99.90
57282;DHT22;43129;52.628;10.098;2024-01-07T09:05:49;-0.70;99.90
57282;DHT22;43129;52.628;10.098;2024-01-07T09:08:15;-0.70;99.90
57282;DHT22;43129;52.628;10.098;2024-01-07T09:10:41;-0.70;99.90
57282;DHT22;43129;52.628;10.098;2024-01-07T09:13:06;-0.70;99.90
57282;DHT22;43129;52.628;10.098;2024-01-07T09:15:36;-0.60;99.90
57282;DHT22;43129;52.628;10.098;2024-01-07T09:18:04;-0.60;99.90
57282;DHT22;43129;52.628;10.098;2024-01-07T09:20:32;-0.60;99.90
57282;DHT22;43129;52.628;10.098;2024-01-07T09:23:01;-0.60;99.90
57282;DHT22;43129;52.628;10.098;2024-01-07T09:25:27;-0.60;99.90
57282;DHT22;43129;52.628;10.098;2024-01-07T09:27:55;-0.60;99.90
57282;DHT22;43129;52.628;10.098;2024-01-07T09:30:21;-0.60;99.90
57282;DHT22;43129;52.628;10.098;2024-01-07T09:32:47;-0.60;99.90
57282;DHT22;43129;52.628;10.098;2024-01-07T09:35:15;-0.50;99.90
57282;DHT22;43129;52.628;10.098;2024-01-07T09:37:40;-0.50;99.90
57282;DHT22;43129;52.628;10.098;2024-01-07T09:40:09;-0.40;99.90
57282;DHT22;43129;52.628;10.098;2024-01-07T09:42:35;-0.30;99.90
57282;DHT22;43129;52.628;10.098;2024-01-07T09:45:04;-0.30;99.90
57282;DHT22;43129;52.628;10.098;2024-01-07T09:47:32;-0.30;99.90
57282;DHT22;43129;52.628;10.098;2024-01-07T09:49:58;-0.30;99.90
57282;DHT22;43129;52.628;10.098;2024-01-07T09:52:25;-0.30;99.90
57282;DHT22;43129;52.628;10.098;2024-01-07T09:54:58;-0.30;99.90
57282;DHT22;43129;52.628;10.098;2024-01-07T09:57:25;-0.30;99.90
57282;DHT22;43129;52.628;10.098;2024-01-07T09:59:51;-0.20;99.90
57282;DHT22;43129;52.628;10.098;2024-01-07T10:02:17;-0.20;99.90
57282;DHT22;43129;52.628;10.098;2024-01-07T10:04:46;-0.20;99.90
57282;DHT22;43129;52.628;10.098;2024-01-07T10:07:16;-0.20;99.90
57282;DHT22;43129;52.628;10.098;2024-01-07T10:09:43;-0.10;99.90
57282;DHT22;43129;52.628;10.098;2024-01-07T10:12:13;-0.10;99.90
57282;DHT22;43129;52.628;10.098;2024-01-07T10:14:41;-0.10;99.90
57282;DHT22;43129;52.628;10.098;2024-01-07T10:17:19;-0.10;99.90
57282;DHT22;43129;52.628;10.098;2024-01-07T10:19:45;0.00;99.90
57282;DHT22;43129;52.628;10.098;2024-01-07T10:22:14;0.00;99.90
57282;DHT22;43129;52.628;10.098;2024-01-07T10:24:42;0.00;99.90
57282;DHT22;43129;52.628;10.098;2024-01-07T10:27:10;0.10;99.90
57282;DHT22;43129;52.628;10.098;2024-01-07T10:29:36;0.10;99.90
57282;DHT22;43129;52.628;10.098;2024-01-07T10:32:03;0.20;99.90
57282;DHT22;43129;52.628;10.098;2024-01-07T10:34:32;0.20;99.90
57282;DHT22;43129;52.628;10.098;2024-01-07T10:37:02;0.20;99.90
57282;DHT22;43129;52.628;10.098;2024-01-07T10:39:30;0.40;99.90
57282;DHT22;43129;52.628;10.098;2024-01-07T10:41:59;0.30;99.90
57282;DHT22;43129;52.628;10.098;2024-01-07T10:44:30;0.40;99.90
57282;DHT22;43129;52.628;10.098;2024-01-07T10:46:57;0.40;99.90
57282;DHT22;43129;52.628;10.098;2024-01-07T10:49:27;0.40;99.90
57282;DHT22;43129;52.628;10.098;2024-01-07T10:54:36;0.60;99.90
57282;DHT22;43129;52.628;10.098;2024-01-07T10:59:53;0.70;99.90
57282;DHT22;43129;52.628;10.098;2024-01-07T11:02:25;0.70;99.90
57282;DHT22;43129;52.628;10.098;2024-01-07T11:05:14;0.60;99.90
57282;DHT22;43129;52.628;10.098;2024-01-07T11:07:46;0.70;99.90
57282;DHT22;43129;52.628;10.098;2024-01-07T11:10:22;0.80;99.90
57282;DHT22;43129;52.628;10.098;2024-01-07T11:12:59;0.80;99.90
57282;DHT22;43129;52.628;10.098;2024-01-07T11:15:56;0.70;99.90
57282;DHT22;43129;52.628;10.098;2024-01-07T11:18:23;0.70;99.90
57282;DHT22;43129;52.628;10.098;2024-01-07T11:20:49;0.60;99.90
57282;DHT22;43129;52.628;10.098;2024-01-07T11:23:30;0.70;99.90
57282;DHT22;43129;52.628;10.098;2024-01-07T11:26:01;0.70;99.90
57282;DHT22;43129;52.628;10.098;2024-01-07T11:28:50;0.80;99.90
57282;DHT22;43129;52.628;10.098;2024-01-07T11:31:21;0.80;99.90
57282;DHT22;43129;52.628;10.098;2024-01-07T11:33:52;0.80;99.90
57282;DHT22;43129;52.628;10.098;2024-01-07T11:36:18;0.90;99.90
57282;DHT22;43129;52.628;10.098;2024-01-07T11:38:45;1.00;99.90
57282;DHT22;43129;52.628;10.098;2024-01-07T11:41:12;1.00;99.90
57282;DHT22;43129;52.628;10.098;2024-01-07T11:43:51;1.00;99.90
57282;DHT22;43129;52.628;10.098;2024-01-07T11:46:17;1.10;99.90
57282;DHT22;43129;52.628;10.098;2024-01-07T11:48:46;1.00;99.90
57282;DHT22;43129;52.628;10.098;2024-01-07T11:51:14;1.10;99.90
57282;DHT22;43129;52.628;10.098;2024-01-07T11:53:42;1.10;99.90
57282;DHT22;43129;52.628;10.098;2024-01-07T11:56:12;1.10;99.90
57282;DHT22;43129;52.628;10.098;2024-01-07T11:58:38;1.10;99.90
57282;DHT22;43129;52.628;10.098;2024-01-07T12:01:03;1.10;99.90
57282;DHT22;43129;52.628;10.098;2024-01-07T12:03:29;1.10;99.90
57282;DHT22;43129;52.628;10.098;2024-01-07T12:05:57;1.00;99.90
57282;DHT22;43129;52.628;10.098;2024-01-07T12:08:25;1.10;99.90
57282;DHT22;43129;52.628;10.098;2024-01-07T12:10:51;1.20;99.90
57282;DHT22;43129;52.628;10.098;2024-01-07T12:13:17;1.30;99.90
57282;DHT22;43129;52.628;10.098;2024-01-07T12:15:46;1.20;99.90
57282;DHT22;43129;52.628;10.098;2024-01-07T12:18:14;1.20;99.90
57282;DHT22;43129;52.628;10.098;2024-01-07T12:20:55;1.30;99.90
57282;DHT22;43129;52.628;10.098;2024-01-07T12:23:20;1.30;99.90
57282;DHT22;43129;52.628;10.098;2024-01-07T12:25:46;1.40;99.90
57282;DHT22;43129;52.628;10.098;2024-01-07T12:28:11;1.40;99.90
57282;DHT22;43129;52.628;10.098;2024-01-07T12:30:37;1.50;99.90
57282;DHT22;43129;52.628;10.098;2024-01-07T12:33:07;1.50;99.90
57282;DHT22;43129;52.628;10.098;2024-01-07T12:35:35;1.50;99.90
57282;DHT22;43129;52.628;10.098;2024-01-07T12:38:02;1.90;99.90
57282;DHT22;43129;52.628;10.098;2024-01-07T12:40:28;2.50;99.90
57282;DHT22;43129;52.628;10.098;2024-01-07T12:42:59;2.90;99.90
57282;DHT22;43129;52.628;10.098;2024-01-07T12:45:25;3.60;99.90
57282;DHT22;43129;52.628;10.098;2024-01-07T12:47:51;3.90;99.90
57282;DHT22;43129;52.628;10.098;2024-01-07T12:50:19;3.80;99.90
57282;DHT22;43129;52.628;10.098;2024-01-07T12:52:47;3.60;99.90
57282;DHT22;43129;52.628;10.098;2024-01-07T12:55:13;3.30;99.90
57282;DHT22;43129;52.628;10.098;2024-01-07T12:57:39;3.20;99.90
57282;DHT22;43129;52.628;10.098;2024-01-07T13:00:05;3.20;99.90
57282;DHT22;43129;52.628;10.098;2024-01-07T13:02:34;3.20;99.90
57282;DHT22;43129;52.628;10.098;2024-01-07T13:05:03;3.30;99.90
57282;DHT22;43129;52.628;10.098;2024-01-07T13:07:31;3.30;99.90
57282;DHT22;43129;52.628;10.098;2024-01-07T13:09:59;3.20;99.90
57282;DHT22;43129;52.628;10.098;2024-01-07T13:12:25;3.30;99.90
57282;DHT22;43129;52.628;10.098;2024-01-07T13:14:52;3.50;99.90
57282;DHT22;43129;52.628;10.098;2024-01-07T13:17:18;3.40;99.90
57282;DHT22;43129;52.628;10.098;2024-01-07T13:19:43;3.00;99.90
57282;DHT22;43129;52.628;10.098;2024-01-07T13:22:09;3.00;99.90
57282;DHT22;43129;52.628;10.098;2024-01-07T13:24:36;2.70;99.90
57282;DHT22;43129;52.628;10.098;2024-01-07T13:27:04;2.60;99.90
57282;DHT22;43129;52.628;10.098;2024-01-07T13:29:30;2.30;99.90
57282;DHT22;43129;52.628;10.098;2024-01-07T13:31:55;2.00;99.90
57282;DHT22;43129;52.628;10.098;2024-01-07T13:34:21;1.90;99.90
57282;DHT22;43129;52.628;10.098;2024-01-07T13:36:53;1.90;99.90
57282;DHT22;43129;52.628;10.098;2024-01-07T13:39:19;1.90;99.90
57282;DHT22;43129;52.628;10.098;2024-01-07T13:41:46;1.80;99.90
57282;DHT22;43129;52.628;10.098;2024-01-07T13:44:12;1.80;99.90
57282;DHT22;43129;52.628;10.098;2024-01-07T13:46:51;1.50;99.90
57282;DHT22;43129;52.628;10.098;2024-01-07T13:49:17;1.80;99.90
57282;DHT22;43129;52.628;10.098;2024-01-07T13:51:46;1.80;99.90
57282;DHT22;43129;52.628;10.098;2024-01-07T13:54:12;2.00;99.90
57282;DHT22;43129;52.628;10.098;2024-01-07T13:56:40;1.90;99.90
57282;DHT22;43129;52.628;10.098;2024-01-07T13:59:08;1.90;99.90
57282;DHT22;43129;52.628;10.098;2024-01-07T14:01:36;1.80;99.90
57282;DHT22;43129;52.628;10.098;2024-01-07T14:04:05;1.80;99.90
57282;DHT22;43129;52.628;10.098;2024-01-07T14:06:33;1.90;99.90
57282;DHT22;43129;52.628;10.098;2024-01-07T14:09:01;1.90;99.90
57282;DHT22;43129;52.628;10.098;2024-01-07T14:11:28;2.10;99.90
57282;DHT22;43129;52.628;10.098;2024-01-07T14:13:58;2.30;99.90
57282;DHT22;43129;52.628;10.098;2024-01-07T14:16:24;2.20;99.90
57282;DHT22;43129;52.628;10.098;2024-01-07T14:18:52;1.90;99.90
57282;DHT22;43129;52.628;10.098;2024-01-07T14:21:18;1.70;99.90
57282;DHT22;43129;52.628;10.098;2024-01-07T14:23:43;1.50;99.90
57282;DHT22;43129;52.628;10.098;2024-01-07T14:26:11;1.60;99.90
57282;DHT22;43129;52.628;10.098;2024-01-07T14:28:37;1.50;99.90
57282;DHT22;43129;52.628;10.098;2024-01-07T14:31:05;1.50;99.90
57282;DHT22;43129;52.628;10.098;2024-01-07T14:33:32;1.40;99.90
57282;DHT22;43129;52.628;10.098;2024-01-07T14:35:58;1.40;99.90
57282;DHT22;43129;52.628;10.098;2024-01-07T14:38:24;1.40;99.90
57282;DHT22;43129;52.628;10.098;2024-01-07T14:40:53;1.20;99.90
57282;DHT22;43129;52.628;10.098;2024-01-07T14:43:21;1.20;99.90
57282;DHT22;43129;52.628;10.098;2024-01-07T14:45:49;1.20;99.90
57282;DHT22;43129;52.628;10.098;2024-01-07T14:48:15;1.10;99.90
57282;DHT22;43129;52.628;10.098;2024-01-07T14:50:42;1.00;99.90
57282;DHT22;43129;52.628;10.098;2024-01-07T14:53:13;0.90;99.90
57282;DHT22;43129;52.628;10.098;2024-01-07T14:55:41;0.90;99.90
57282;DHT22;43129;52.628;10.098;2024-01-07T14:58:07;0.70;99.90
57282;DHT22;43129;52.628;10.098;2024-01-07T15:00:32;0.70;99.90
57282;DHT22;43129;52.628;10.098;2024-01-07T15:03:01;0.60;99.90
57282;DHT22;43129;52.628;10.098;2024-01-07T15:05:27;0.40;99.90
57282;DHT22;43129;52.628;10.098;2024-01-07T15:07:54;0.30;99.90
57282;DHT22;43129;52.628;10.098;2024-01-07T15:10:23;0.30;99.90
57282;DHT22;43129;52.628;10.098;2024-01-07T15:12:50;0.40;99.90
57282;DHT22;43129;52.628;10.098;2024-01-07T15:15:16;0.30;99.90
57282;DHT22;43129;52.628;10.098;2024-01-07T15:17:48;0.10;99.90
57282;DHT22;43129;52.628;10.098;2024-01-07T15:20:16;0.10;99.90
57282;DHT22;43129;52.628;10.098;2024-01-07T15:22:42;0.00;99.90
57282;DHT22;43129;52.628;10.098;2024-01-07T15:25:10;-0.10;99.90
57282;DHT22;43129;52.628;10.098;2024-01-07T15:27:36;-0.10;99.90